sensor_id;sensor_type;location;lat;lon;timestamp;pressure;altitude;pressure_sealevel;temperature;humidity
36258;BME280;22294;52.044;4.582;2023-03-23T00:00:59;75468.22;;;-144.37;100.00
36258;BME280;22294;52.044;4.582;2023-03-23T00:03:24;75462.06;;;-144.37;100.00
36258;BME280;22294;52.044;4.582;2023-03-23T00:05:51;75462.06;;;-144.37;100.00
36258;BME280;22294;52.044;4.582;2023-03-23T00:08:21;75466.16;;;-144.37;100.00
36258;BME280;22294;52.044;4.582;2023-03-23T00:10:49;75464.13;;;-144.37;100.00
36258;BME280;22294;52.044;4.582;2023-03-23T00:13:18;75455.94;;;-144.37;100.00
36258;BME280;22294;52.044;4.582;2023-03-23T00:15:45;75460.03;;;-144.37;100.00
36258;BME280;22294;52.044;4.582;2023-03-23T00:18:12;75457.97;;;-144.37;100.00
36258;BME280;22294;52.044;4.582;2023-03-23T00:20:55;75451.84;;;-144.37;100.00
36258;BME280;22294;52.044;4.582;2023-03-23T00:23:23;75460.03;;;-144.37;100.00
36258;BME280;22294;52.044;4.582;2023-03-23T00:25:54;75449.81;;;-144.37;100.00
36258;BME280;22294;52.044;4.582;2023-03-23T00:28:22;75443.66;;;-144.37;100.00
36258;BME280;22294;52.044;4.582;2023-03-23T00:30:57;75445.72;;;-144.37;100.00
36258;BME280;22294;52.044;4.582;2023-03-23T00:33:26;75443.66;;;-144.37;100.00
36258;BME280;22294;52.044;4.582;2023-03-23T00:35:53;75443.66;;;-144.37;100.00
36258;BME280;22294;52.044;4.582;2023-03-23T00:38:23;75437.53;;;-144.37;100.00
36258;BME280;22294;52.044;4.582;2023-03-23T00:40:49;75439.59;;;-144.37;100.00
36258;BME280;22294;52.044;4.582;2023-03-23T00:43:16;75435.50;;;-144.37;100.00
36258;BME280;22294;52.044;4.582;2023-03-23T00:45:42;75437.53;;;-144.37;100.00
36258;BME280;22294;52.044;4.582;2023-03-23T00:48:10;75433.44;;;-144.37;100.00
36258;BME280;22294;52.044;4.582;2023-03-23T00:50:38;75435.50;;;-144.37;100.00
36258;BME280;22294;52.044;4.582;2023-03-23T00:53:03;75441.63;;;-144.37;100.00
36258;BME280;22294;52.044;4.582;2023-03-23T00:55:29;75447.75;;;-144.37;100.00
36258;BME280;22294;52.044;4.582;2023-03-23T00:57:55;75449.81;;;-144.37;100.00
36258;BME280;22294;52.044;4.582;2023-03-23T01:00:22;75445.72;;;-144.37;100.00
36258;BME280;22294;52.044;4.582;2023-03-23T01:02:48;75453.91;;;-144.37;100.00
36258;BME280;22294;52.044;4.582;2023-03-23T01:05:17;75455.94;;;-144.37;100.00
36258;BME280;22294;52.044;4.582;2023-03-23T01:07:43;75447.75;;;-144.37;100.00
36258;BME280;22294;52.044;4.582;2023-03-23T01:10:10;75435.50;;;-144.37;100.00
36258;BME280;22294;52.044;4.582;2023-03-23T01:12:40;75437.53;;;-144.37;100.00
36258;BME280;22294;52.044;4.582;2023-03-23T01:15:06;75415.03;;;-144.37;100.00
36258;BME280;22294;52.044;4.582;2023-03-23T01:17:32;75427.31;;;-144.37;100.00
36258;BME280;22294;52.044;4.582;2023-03-23T01:19:57;75423.22;;;-144.37;100.00
36258;BME280;22294;52.044;4.582;2023-03-23T01:22:22;75435.50;;;-144.37;100.00
36258;BME280;22294;52.044;4.582;2023-03-23T01:24:48;75427.31;;;-144.37;100.00
36258;BME280;22294;52.044;4.582;2023-03-23T01:27:13;75419.13;;;-144.37;100.00
36258;BME280;22294;52.044;4.582;2023-03-23T01:29:39;75417.09;;;-144.37;99.93
36258;BME280;22294;52.044;4.582;2023-03-23T01:32:04;75417.09;;;-144.37;100.00
36258;BME280;22294;52.044;4.582;2023-03-23T01:34:30;75408.91;;;-144.37;100.00
36258;BME280;22294;52.044;4.582;2023-03-23T01:36:57;75410.94;;;-144.37;99.57
36258;BME280;22294;52.044;4.582;2023-03-23T01:39:22;75408.91;;;-144.37;100.00
36258;BME280;22294;52.044;4.582;2023-03-23T01:41:48;75410.94;;;-144.37;100.00
36258;BME280;22294;52.044;4.582;2023-03-23T01:46:41;75406.88;;;-144.37;100.00
36258;BME280;22294;52.044;4.582;2023-03-23T01:49:12;75410.94;;;-144.37;100.00
36258;BME280;22294;52.044;4.582;2023-03-23T01:51:43;75398.69;;;-144.37;100.00
36258;BME280;22294;52.044;4.582;2023-03-23T01:54:12;75400.72;;;-144.37;100.00
36258;BME280;22294;52.044;4.582;2023-03-23T01:56:46;75390.50;;;-144.37;100.00
36258;BME280;22294;52.044;4.582;2023-03-23T01:59:14;75392.56;;;-144.37;100.00
36258;BME280;22294;52.044;4.582;2023-03-23T02:01:40;75390.50;;;-144.37;100.00
36258;BME280;22294;52.044;4.582;2023-03-23T02:04:11;75398.69;;;-144.37;100.00
36258;BME280;22294;52.044;4.582;2023-03-23T02:06:36;75402.78;;;-144.37;100.00
36258;BME280;22294;52.044;4.582;2023-03-23T02:09:03;75402.78;;;-144.37;100.00
36258;BME280;22294;52.044;4.582;2023-03-23T02:11:31;75410.94;;;-144.37;100.00
36258;BME280;22294;52.044;4.582;2023-03-23T02:13:56;75406.88;;;-144.37;100.00
36258;BME280;22294;52.044;4.582;2023-03-23T02:16:31;75398.69;;;-144.37;100.00
36258;BME280;22294;52.044;4.582;2023-03-23T02:19:36;75413.00;;;-144.37;100.00
36258;BME280;22294;52.044;4.582;2023-03-23T02:22:26;75406.88;;;-144.37;100.00
36258;BME280;22294;52.044;4.582;2023-03-23T02:28:05;75398.69;;;-144.37;100.00
36258;BME280;22294;52.044;4.582;2023-03-23T02:31:14;75408.91;;;-144.37;100.00
36258;BME280;22294;52.044;4.582;2023-03-23T02:34:30;75396.63;;;-144.37;100.00
36258;BME280;22294;52.044;4.582;2023-03-23T02:37:03;75398.69;;;-144.37;100.00
36258;BME280;22294;52.044;4.582;2023-03-23T02:39:37;75396.63;;;-144.37;100.00
36258;BME280;22294;52.044;4.582;2023-03-23T02:42:07;75392.56;;;-144.37;100.00
36258;BME280;22294;52.044;4.582;2023-03-23T02:44:35;75402.78;;;-144.37;100.00
36258;BME280;22294;52.044;4.582;2023-03-23T02:47:06;75392.56;;;-144.37;100.00
36258;BME280;22294;52.044;4.582;2023-03-23T02:49:35;75392.56;;;-144.37;100.00
36258;BME280;22294;52.044;4.582;2023-03-23T02:52:08;75392.56;;;-144.37;100.00
36258;BME280;22294;52.044;4.582;2023-03-23T02:54:37;75384.38;;;-144.37;100.00
36258;BME280;22294;52.044;4.582;2023-03-23T02:57:04;75390.50;;;-144.37;100.00
36258;BME280;22294;52.044;4.582;2023-03-23T02:59:30;75390.50;;;-144.37;100.00
36258;BME280;22294;52.044;4.582;2023-03-23T03:02:05;75388.47;;;-144.37;100.00
36258;BME280;22294;52.044;4.582;2023-03-23T03:04:32;75390.50;;;-144.37;100.00
36258;BME280;22294;52.044;4.582;2023-03-23T03:10:11;75388.47;;;-144.37;100.00
36258;BME280;22294;52.044;4.582;2023-03-23T03:12:51;75388.47;;;-144.37;100.00
36258;BME280;22294;52.044;4.582;2023-03-23T03:18:19;75392.56;;;-144.37;100.00
36258;BME280;22294;52.044;4.582;2023-03-23T03:20:54;75408.91;;;-144.37;100.00
36258;BME280;22294;52.044;4.582;2023-03-23T03:23:23;75415.03;;;-144.37;100.00
36258;BME280;22294;52.044;4.582;2023-03-23T03:25:50;75431.41;;;-144.37;100.00
36258;BME280;22294;52.044;4.582;2023-03-23T03:28:17;75435.50;;;-144.37;100.00
36258;BME280;22294;52.044;4.582;2023-03-23T03:30:51;75451.84;;;-144.37;100.00
36258;BME280;22294;52.044;4.582;2023-03-23T03:33:19;75455.94;;;-144.37;100.00
36258;BME280;22294;52.044;4.582;2023-03-23T03:35:46;75470.25;;;-144.37;100.00
36258;BME280;22294;52.044;4.582;2023-03-23T03:38:12;75466.16;;;-144.37;100.00
36258;BME280;22294;52.044;4.582;2023-03-23T03:40:39;75470.25;;;-144.37;100.00
36258;BME280;22294;52.044;4.582;2023-03-23T03:43:06;75486.63;;;-144.37;100.00
36258;BME280;22294;52.044;4.582;2023-03-23T03:45:32;75478.44;;;-144.37;100.00
36258;BME280;22294;52.044;4.582;2023-03-23T03:47:58;75500.94;;;-144.37;100.00
36258;BME280;22294;52.044;4.582;2023-03-23T03:50:24;75494.78;;;-144.37;100.00
36258;BME280;22294;52.044;4.582;2023-03-23T03:52:49;75498.88;;;-144.37;100.00
36258;BME280;22294;52.044;4.582;2023-03-23T03:55:15;75500.94;;;-144.37;100.00
36258;BME280;22294;52.044;4.582;2023-03-23T03:57:42;75496.84;;;-144.37;100.00
36258;BME280;22294;52.044;4.582;2023-03-23T04:00:09;75500.94;;;-144.37;100.00
36258;BME280;22294;52.044;4.582;2023-03-23T04:02:43;75505.00;;;-144.37;100.00
36258;BME280;22294;52.044;4.582;2023-03-23T04:05:10;75509.09;;;-144.37;100.00
36258;BME280;22294;52.044;4.582;2023-03-23T04:07:38;75498.88;;;-144.37;100.00
36258;BME280;22294;52.044;4.582;2023-03-23T04:10:09;75494.78;;;-144.37;100.00
36258;BME280;22294;52.044;4.582;2023-03-23T04:12:36;75492.75;;;-144.37;100.00
36258;BME280;22294;52.044;4.582;2023-03-23T04:15:02;75490.69;;;-144.37;100.00
36258;BME280;22294;52.044;4.582;2023-03-23T04:17:27;75494.78;;;-144.37;100.00
36258;BME280;22294;52.044;4.582;2023-03-23T04:19:54;75490.69;;;-144.37;100.00
36258;BME280;22294;52.044;4.582;2023-03-23T04:22:24;75486.63;;;-144.37;100.00
36258;BME280;22294;52.044;4.582;2023-03-23T04:24:57;75490.69;;;-144.37;100.00
36258;BME280;22294;52.044;4.582;2023-03-23T04:27:26;75494.78;;;-144.37;100.00
36258;BME280;22294;52.044;4.582;2023-03-23T04:29:54;75484.56;;;-144.37;100.00
36258;BME280;22294;52.044;4.582;2023-03-23T04:32:19;75488.66;;;-144.37;100.00
36258;BME280;22294;52.044;4.582;2023-03-23T04:34:45;75494.78;;;-144.37;100.00
36258;BME280;22294;52.044;4.582;2023-03-23T04:37:10;75505.00;;;-144.37;100.00
36258;BME280;22294;52.044;4.582;2023-03-23T04:39:35;75492.75;;;-144.37;100.00
36258;BME280;22294;52.044;4.582;2023-03-23T04:42:01;75492.75;;;-144.37;100.00
36258;BME280;22294;52.044;4.582;2023-03-23T04:44:27;75494.78;;;-144.37;100.00
36258;BME280;22294;52.044;4.582;2023-03-23T04:46:53;75494.78;;;-144.37;100.00
36258;BME280;22294;52.044;4.582;2023-03-23T04:49:19;75496.84;;;-144.37;100.00
36258;BME280;22294;52.044;4.582;2023-03-23T04:51:47;75502.97;;;-144.37;100.00
36258;BME280;22294;52.044;4.582;2023-03-23T04:54:13;75509.09;;;-144.37;100.00
36258;BME280;22294;52.044;4.582;2023-03-23T04:56:39;75505.00;;;-144.37;100.00
36258;BME280;22294;52.044;4.582;2023-03-23T04:59:06;75523.41;;;-144.37;100.00
36258;BME280;22294;52.044;4.582;2023-03-23T05:01:31;75537.72;;;-144.37;100.00
36258;BME280;22294;52.044;4.582;2023-03-23T05:03:59;75550.00;;;-144.37;100.00
36258;BME280;22294;52.044;4.582;2023-03-23T05:06:25;75545.91;;;-144.37;100.00
36258;BME280;22294;52.044;4.582;2023-03-23T05:08:51;75554.09;;;-144.37;100.00
36258;BME280;22294;52.044;4.582;2023-03-23T05:11:16;75554.09;;;-144.37;100.00
36258;BME280;22294;52.044;4.582;2023-03-23T05:13:41;75556.13;;;-144.37;100.00
36258;BME280;22294;52.044;4.582;2023-03-23T05:16:10;75566.34;;;-144.37;100.00
36258;BME280;22294;52.044;4.582;2023-03-23T05:18:36;75560.22;;;-144.37;100.00
36258;BME280;22294;52.044;4.582;2023-03-23T05:21:02;75572.50;;;-144.37;100.00
36258;BME280;22294;52.044;4.582;2023-03-23T05:23:29;75580.69;;;-144.37;100.00
36258;BME280;22294;52.044;4.582;2023-03-23T05:25:57;75588.84;;;-144.37;100.00
36258;BME280;22294;52.044;4.582;2023-03-23T05:28:29;75584.75;;;-144.37;100.00
36258;BME280;22294;52.044;4.582;2023-03-23T05:30:56;75588.84;;;-144.37;100.00
36258;BME280;22294;52.044;4.582;2023-03-23T05:33:21;75586.81;;;-144.37;100.00
36258;BME280;22294;52.044;4.582;2023-03-23T05:35:47;75592.94;;;-144.37;100.00
36258;BME280;22294;52.044;4.582;2023-03-23T05:38:14;75595.00;;;-144.37;100.00
36258;BME280;22294;52.044;4.582;2023-03-23T05:40:40;75592.94;;;-144.37;100.00
36258;BME280;22294;52.044;4.582;2023-03-23T05:43:07;75588.84;;;-144.37;100.00
36258;BME280;22294;52.044;4.582;2023-03-23T05:45:34;75592.94;;;-144.37;100.00
36258;BME280;22294;52.044;4.582;2023-03-23T05:48:00;75601.13;;;-144.37;100.00
36258;BME280;22294;52.044;4.582;2023-03-23T05:50:25;75588.84;;;-144.37;100.00
36258;BME280;22294;52.044;4.582;2023-03-23T05:52:51;75597.03;;;-144.37;100.00
36258;BME280;22294;52.044;4.582;2023-03-23T05:55:17;75590.91;;;-144.37;100.00
36258;BME280;22294;52.044;4.582;2023-03-23T05:57:42;75588.84;;;-144.37;100.00
36258;BME280;22294;52.044;4.582;2023-03-23T06:00:08;75597.03;;;-144.37;100.00
36258;BME280;22294;52.044;4.582;2023-03-23T06:02:39;75607.25;;;-144.37;100.00
36258;BME280;22294;52.044;4.582;2023-03-23T06:05:09;75605.22;;;-144.37;100.00
36258;BME280;22294;52.044;4.582;2023-03-23T06:07:35;75605.22;;;-144.37;100.00
36258;BME280;22294;52.044;4.582;2023-03-23T06:10:01;75605.22;;;-144.37;100.00
36258;BME280;22294;52.044;4.582;2023-03-23T06:12:27;75609.31;;;-144.37;100.00
36258;BME280;22294;52.044;4.582;2023-03-23T06:14:52;75611.34;;;-144.37;100.00
36258;BME280;22294;52.044;4.582;2023-03-23T06:17:18;75609.31;;;-144.37;100.00
36258;BME280;22294;52.044;4.582;2023-03-23T06:19:44;75613.38;;;-144.37;100.00
36258;BME280;22294;52.044;4.582;2023-03-23T06:22:12;75609.31;;;-144.37;100.00
36258;BME280;22294;52.044;4.582;2023-03-23T06:24:38;75615.44;;;-144.37;100.00
36258;BME280;22294;52.044;4.582;2023-03-23T06:27:03;75615.44;;;-144.37;100.00
36258;BME280;22294;52.044;4.582;2023-03-23T06:29:29;75607.25;;;-144.37;100.00
36258;BME280;22294;52.044;4.582;2023-03-23T06:32:00;75613.38;;;-144.37;100.00
36258;BME280;22294;52.044;4.582;2023-03-23T06:34:27;75615.44;;;-144.37;100.00
36258;BME280;22294;52.044;4.582;2023-03-23T06:36:52;75613.38;;;-144.37;100.00
36258;BME280;22294;52.044;4.582;2023-03-23T06:39:18;75617.47;;;-144.37;100.00
36258;BME280;22294;52.044;4.582;2023-03-23T06:41:44;75613.38;;;-144.37;100.00
36258;BME280;22294;52.044;4.582;2023-03-23T06:44:09;75617.47;;;-144.37;100.00
36258;BME280;22294;52.044;4.582;2023-03-23T06:46:38;75625.66;;;-144.37;100.00
36258;BME280;22294;52.044;4.582;2023-03-23T06:49:03;75629.75;;;-144.37;100.00
36258;BME280;22294;52.044;4.582;2023-03-23T06:51:28;75633.84;;;-144.37;100.00
36258;BME280;22294;52.044;4.582;2023-03-23T06:53:54;75629.75;;;-144.37;100.00
36258;BME280;22294;52.044;4.582;2023-03-23T06:56:20;75621.56;;;-144.37;100.00
36258;BME280;22294;52.044;4.582;2023-03-23T06:58:45;75625.66;;;-144.37;100.00
36258;BME280;22294;52.044;4.582;2023-03-23T07:01:10;75609.31;;;-144.37;100.00
36258;BME280;22294;52.044;4.582;2023-03-23T07:03:36;75619.53;;;-144.37;100.00
36258;BME280;22294;52.044;4.582;2023-03-23T07:06:02;75627.72;;;-144.37;100.00
36258;BME280;22294;52.044;4.582;2023-03-23T07:08:28;75629.75;;;-144.37;100.00
36258;BME280;22294;52.044;4.582;2023-03-23T07:10:55;75629.75;;;-144.37;100.00
36258;BME280;22294;52.044;4.582;2023-03-23T07:13:21;75633.84;;;-144.37;100.00
36258;BME280;22294;52.044;4.582;2023-03-23T07:15:47;75615.44;;;-144.37;100.00
36258;BME280;22294;52.044;4.582;2023-03-23T07:18:13;75627.72;;;-144.37;100.00
36258;BME280;22294;52.044;4.582;2023-03-23T07:20:38;75603.16;;;-144.37;100.00
36258;BME280;22294;52.044;4.582;2023-03-23T07:23:04;75633.84;;;-144.37;100.00
36258;BME280;22294;52.044;4.582;2023-03-23T07:25:33;75629.75;;;-144.37;100.00
36258;BME280;22294;52.044;4.582;2023-03-23T07:28:00;75623.63;;;-144.37;100.00
36258;BME280;22294;52.044;4.582;2023-03-23T07:30:26;75627.72;;;-144.37;100.00
36258;BME280;22294;52.044;4.582;2023-03-23T07:32:52;75635.88;;;-144.37;100.00
36258;BME280;22294;52.044;4.582;2023-03-23T07:35:18;75625.66;;;-144.37;100.00
36258;BME280;22294;52.044;4.582;2023-03-23T07:37:43;75627.72;;;-144.37;100.00
36258;BME280;22294;52.044;4.582;2023-03-23T07:40:10;75623.63;;;-144.37;100.00
36258;BME280;22294;52.044;4.582;2023-03-23T07:42:51;75642.03;;;-144.37;100.00
36258;BME280;22294;52.044;4.582;2023-03-23T07:45:17;75629.75;;;-144.37;100.00
36258;BME280;22294;52.044;4.582;2023-03-23T07:47:43;75625.66;;;-144.37;100.00
36258;BME280;22294;52.044;4.582;2023-03-23T07:50:09;75611.34;;;-144.37;100.00
36258;BME280;22294;52.044;4.582;2023-03-23T07:52:35;75586.81;;;-144.37;100.00
36258;BME280;22294;52.044;4.582;2023-03-23T07:55:02;75566.34;;;-144.37;100.00
36258;BME280;22294;52.044;4.582;2023-03-23T07:57:29;75547.97;;;-144.37;100.00
36258;BME280;22294;52.044;4.582;2023-03-23T07:59:54;75541.81;;;-144.37;100.00
36258;BME280;22294;52.044;4.582;2023-03-23T08:02:22;75552.03;;;-144.37;99.33
36258;BME280;22294;52.044;4.582;2023-03-23T08:04:47;75554.09;;;-144.37;100.00
36258;BME280;22294;52.044;4.582;2023-03-23T08:07:13;75562.28;;;-144.37;99.23
36258;BME280;22294;52.044;4.582;2023-03-23T08:09:40;75574.53;;;-144.37;99.40
36258;BME280;22294;52.044;4.582;2023-03-23T08:12:07;75572.50;;;-144.37;99.58
36258;BME280;22294;52.044;4.582;2023-03-23T08:14:32;75580.69;;;-144.37;99.28
36258;BME280;22294;52.044;4.582;2023-03-23T08:16:58;75584.75;;;-144.37;99.06
36258;BME280;22294;52.044;4.582;2023-03-23T08:19:24;75572.50;;;-144.37;100.00
36258;BME280;22294;52.044;4.582;2023-03-23T08:21:49;75568.41;;;-144.37;100.00
36258;BME280;22294;52.044;4.582;2023-03-23T08:24:15;75564.31;;;-144.37;99.61
36258;BME280;22294;52.044;4.582;2023-03-23T08:26:42;75556.13;;;-144.37;100.00
36258;BME280;22294;52.044;4.582;2023-03-23T08:29:07;75562.28;;;-144.37;98.99
36258;BME280;22294;52.044;4.582;2023-03-23T08:31:33;75550.00;;;-144.37;99.07
36258;BME280;22294;52.044;4.582;2023-03-23T08:34:01;75543.88;;;-144.37;98.58
36258;BME280;22294;52.044;4.582;2023-03-23T08:36:26;75531.59;;;-144.37;97.73
36258;BME280;22294;52.044;4.582;2023-03-23T08:38:53;75539.78;;;-144.37;97.59
36258;BME280;22294;52.044;4.582;2023-03-23T08:41:18;75543.88;;;-144.37;97.36
36258;BME280;22294;52.044;4.582;2023-03-23T08:43:44;75541.81;;;-144.37;96.65
36258;BME280;22294;52.044;4.582;2023-03-23T08:46:10;75545.91;;;-144.37;96.13
36258;BME280;22294;52.044;4.582;2023-03-23T08:48:36;75533.63;;;-144.37;96.21
36258;BME280;22294;52.044;4.582;2023-03-23T08:51:04;75527.50;;;-144.37;95.91
36258;BME280;22294;52.044;4.582;2023-03-23T08:53:30;75519.31;;;-144.37;95.29
36258;BME280;22294;52.044;4.582;2023-03-23T08:56:02;75519.31;;;-144.37;94.90
36258;BME280;22294;52.044;4.582;2023-03-23T08:58:27;75521.38;;;-144.37;95.50
36258;BME280;22294;52.044;4.582;2023-03-23T09:00:53;75496.84;;;-144.37;92.99
36258;BME280;22294;52.044;4.582;2023-03-23T09:03:18;75498.88;;;-144.37;92.39
36258;BME280;22294;52.044;4.582;2023-03-23T09:05:44;75484.56;;;-144.37;92.07
36258;BME280;22294;52.044;4.582;2023-03-23T09:08:11;75476.38;;;-144.37;91.55
36258;BME280;22294;52.044;4.582;2023-03-23T09:10:38;75482.53;;;-144.37;88.40
36258;BME280;22294;52.044;4.582;2023-03-23T09:13:04;75480.47;;;-144.37;88.79
36258;BME280;22294;52.044;4.582;2023-03-23T09:15:29;75472.28;;;-144.37;87.82
36258;BME280;22294;52.044;4.582;2023-03-23T09:17:55;75464.13;;;-144.37;86.77
36258;BME280;22294;52.044;4.582;2023-03-23T09:20:23;75462.06;;;-144.37;87.67
36258;BME280;22294;52.044;4.582;2023-03-23T09:22:51;75462.06;;;-144.37;87.63
36258;BME280;22294;52.044;4.582;2023-03-23T09:25:20;75462.06;;;-144.37;85.91
36258;BME280;22294;52.044;4.582;2023-03-23T09:27:52;75466.16;;;-144.37;84.66
36258;BME280;22294;52.044;4.582;2023-03-23T09:30:19;75478.44;;;-144.37;84.27
36258;BME280;22294;52.044;4.582;2023-03-23T09:32:45;75482.53;;;-144.37;84.54
36258;BME280;22294;52.044;4.582;2023-03-23T09:35:14;75494.78;;;-144.37;83.82
36258;BME280;22294;52.044;4.582;2023-03-23T09:37:41;75505.00;;;-144.37;85.46
36258;BME280;22294;52.044;4.582;2023-03-23T09:40:12;75515.25;;;-144.37;82.63
36258;BME280;22294;52.044;4.582;2023-03-23T09:43:04;75486.63;;;-144.37;84.14
36258;BME280;22294;52.044;4.582;2023-03-23T09:50:55;75517.28;;;-144.37;84.18
36258;BME280;22294;52.044;4.582;2023-03-23T09:53:27;75519.31;;;-144.37;84.66
36258;BME280;22294;52.044;4.582;2023-03-23T09:56:00;75515.25;;;-144.37;84.74
36258;BME280;22294;52.044;4.582;2023-03-23T09:58:37;75511.16;;;-144.37;84.88
36258;BME280;22294;52.044;4.582;2023-03-23T10:01:15;75509.09;;;-144.37;84.48
36258;BME280;22294;52.044;4.582;2023-03-23T10:03:44;75492.75;;;-144.37;83.55
36258;BME280;22294;52.044;4.582;2023-03-23T10:06:13;75488.66;;;-144.37;82.38
36258;BME280;22294;52.044;4.582;2023-03-23T10:08:44;75494.78;;;-144.37;83.20
36258;BME280;22294;52.044;4.582;2023-03-23T10:11:33;75484.56;;;-144.37;81.80
36258;BME280;22294;52.044;4.582;2023-03-23T10:20:13;75515.25;;;-144.37;82.31
36258;BME280;22294;52.044;4.582;2023-03-23T10:22:47;75505.00;;;-144.37;83.54
36258;BME280;22294;52.044;4.582;2023-03-23T10:27:50;75468.22;;;-144.37;82.15
36258;BME280;22294;52.044;4.582;2023-03-23T10:30:33;75472.28;;;-144.37;81.76
36258;BME280;22294;52.044;4.582;2023-03-23T10:36:19;75480.47;;;-144.37;80.14
36258;BME280;22294;52.044;4.582;2023-03-23T10:38:50;75474.34;;;-144.37;80.78
36258;BME280;22294;52.044;4.582;2023-03-23T10:41:19;75439.59;;;-144.37;79.72
36258;BME280;22294;52.044;4.582;2023-03-23T10:43:46;75435.50;;;-144.37;77.26
36258;BME280;22294;52.044;4.582;2023-03-23T10:46:29;75437.53;;;-144.37;77.95
36258;BME280;22294;52.044;4.582;2023-03-23T10:48:59;75443.66;;;-144.37;76.87
36258;BME280;22294;52.044;4.582;2023-03-23T10:51:41;75445.72;;;-144.37;77.41
36258;BME280;22294;52.044;4.582;2023-03-23T10:54:07;75425.25;;;-144.37;78.24
36258;BME280;22294;52.044;4.582;2023-03-23T10:56:45;75419.13;;;-144.37;78.25
36258;BME280;22294;52.044;4.582;2023-03-23T10:59:30;75419.13;;;-144.37;76.29
36258;BME280;22294;52.044;4.582;2023-03-23T11:02:01;75427.31;;;-144.37;75.94
36258;BME280;22294;52.044;4.582;2023-03-23T11:04:29;75433.44;;;-144.37;76.11
36258;BME280;22294;52.044;4.582;2023-03-23T11:06:59;75415.03;;;-144.37;75.96
36258;BME280;22294;52.044;4.582;2023-03-23T11:09:40;75415.03;;;-144.37;74.42
36258;BME280;22294;52.044;4.582;2023-03-23T11:12:16;75415.03;;;-144.37;72.51
36258;BME280;22294;52.044;4.582;2023-03-23T11:14:42;75390.50;;;-144.37;73.29
36258;BME280;22294;52.044;4.582;2023-03-23T11:17:26;75372.09;;;-144.37;72.61
36258;BME280;22294;52.044;4.582;2023-03-23T11:19:53;75370.06;;;-144.37;73.51
36258;BME280;22294;52.044;4.582;2023-03-23T11:22:26;75353.69;;;-144.37;73.48
36258;BME280;22294;52.044;4.582;2023-03-23T11:24:54;75343.47;;;-144.37;73.48
36258;BME280;22294;52.044;4.582;2023-03-23T11:27:23;75345.53;;;-144.37;71.88
36258;BME280;22294;52.044;4.582;2023-03-23T11:32:17;75323.03;;;-144.37;71.14
36258;BME280;22294;52.044;4.582;2023-03-23T11:34:45;75323.03;;;-144.37;70.65
36258;BME280;22294;52.044;4.582;2023-03-23T11:37:16;75314.84;;;-144.37;69.08
36258;BME280;22294;52.044;4.582;2023-03-23T11:39:54;75323.03;;;-144.37;70.75
36258;BME280;22294;52.044;4.582;2023-03-23T11:42:23;75316.91;;;-144.37;69.48
36258;BME280;22294;52.044;4.582;2023-03-23T11:44:53;75320.97;;;-144.37;70.01
36258;BME280;22294;52.044;4.582;2023-03-23T11:50:04;75310.75;;;-144.37;69.86
36258;BME280;22294;52.044;4.582;2023-03-23T11:52:49;75300.53;;;-144.37;70.04
36258;BME280;22294;52.044;4.582;2023-03-23T11:55:22;75294.41;;;-144.37;69.61
36258;BME280;22294;52.044;4.582;2023-03-23T11:57:49;75278.03;;;-144.37;71.89
36258;BME280;22294;52.044;4.582;2023-03-23T12:00:17;75288.28;;;-144.37;70.97
36258;BME280;22294;52.044;4.582;2023-03-23T12:11:23;75271.91;;;-144.37;67.70
36258;BME280;22294;52.044;4.582;2023-03-23T12:16:50;75294.41;;;-144.37;68.61
36258;BME280;22294;52.044;4.582;2023-03-23T12:19:42;75306.66;;;-144.37;67.20
36258;BME280;22294;52.044;4.582;2023-03-23T12:24:58;75343.47;;;-144.37;67.03
36258;BME280;22294;52.044;4.582;2023-03-23T12:27:45;75341.44;;;-144.37;68.01
36258;BME280;22294;52.044;4.582;2023-03-23T12:36:03;75343.47;;;-144.37;69.95
36258;BME280;22294;52.044;4.582;2023-03-23T12:41:44;75343.47;;;-144.37;68.74
36258;BME280;22294;52.044;4.582;2023-03-23T12:44:13;75327.13;;;-144.37;69.38
36258;BME280;22294;52.044;4.582;2023-03-23T12:46:54;75298.50;;;-144.37;70.34
36258;BME280;22294;52.044;4.582;2023-03-23T12:55:04;75278.03;;;-144.37;69.65
36258;BME280;22294;52.044;4.582;2023-03-23T12:57:51;75292.34;;;-144.37;69.34
36258;BME280;22294;52.044;4.582;2023-03-23T13:01:03;75304.63;;;-144.37;68.01
36258;BME280;22294;52.044;4.582;2023-03-23T13:08:56;75308.72;;;-144.37;66.95
36258;BME280;22294;52.044;4.582;2023-03-23T13:11:35;75294.41;;;-144.37;66.67
36258;BME280;22294;52.044;4.582;2023-03-23T13:17:16;75269.88;;;-144.37;65.33
36258;BME280;22294;52.044;4.582;2023-03-23T13:22:53;75284.19;;;-144.37;66.71
36258;BME280;22294;52.044;4.582;2023-03-23T13:25:37;75292.34;;;-144.37;65.70
36258;BME280;22294;52.044;4.582;2023-03-23T13:28:04;75296.44;;;-144.37;65.42
36258;BME280;22294;52.044;4.582;2023-03-23T13:30:30;75300.53;;;-144.37;64.61
36258;BME280;22294;52.044;4.582;2023-03-23T13:33:04;75302.59;;;-144.37;65.69
36258;BME280;22294;52.044;4.582;2023-03-23T13:35:37;75298.50;;;-144.37;65.51
36258;BME280;22294;52.044;4.582;2023-03-23T13:38:15;75296.44;;;-144.37;65.76
36258;BME280;22294;52.044;4.582;2023-03-23T13:40:43;75292.34;;;-144.37;65.97
36258;BME280;22294;52.044;4.582;2023-03-23T13:43:09;75276.00;;;-144.37;67.00
36258;BME280;22294;52.044;4.582;2023-03-23T13:45:43;75273.97;;;-144.37;66.79
36258;BME280;22294;52.044;4.582;2023-03-23T13:50:56;75269.88;;;-144.37;67.37
36258;BME280;22294;52.044;4.582;2023-03-23T13:53:46;75276.00;;;-144.37;66.00
36258;BME280;22294;52.044;4.582;2023-03-23T13:56:16;75271.91;;;-144.37;66.13
36258;BME280;22294;52.044;4.582;2023-03-23T13:58:48;75257.59;;;-144.37;66.21
36258;BME280;22294;52.044;4.582;2023-03-23T14:01:17;75243.28;;;-144.37;66.23